Time;durP1;ratioP1;P1;durP2;ratioP2;P2;SDS_P1;SDS_P2;PMS_P1;PMS_P2;Temp;Humidity;BMP_temperature;BMP_pressure;BME280_temperature;BME280_humidity;BME280_pressure;Samples;Min_cycle;Max_cycle;Signal;HPM_P1;HPM_P2
2023/06/03 00:00:03;;;;;;;29.55;16.92;;;;;;;14.38;89.89;98528.56;4839057;29;20813;-71
2023/06/03 00:02:38;;;;;;;31.33;17.40;;;;;;;14.36;89.73;98547.47;4823738;29;20057;-69
2023/06/03 00:05:05;;;;;;;26.23;16.65;;;;;;;14.33;89.77;98553.19;4821023;29;20395;-68
2023/06/03 00:08:00;;;;;;;29.50;16.98;;;;;;;14.40;89.59;98546.19;4821770;29;20517;-67
2023/06/03 00:10:29;;;;;;;21.42;13.57;;;;;;;14.32;89.73;98535.41;4823833;29;20034;-68
2023/06/03 00:12:55;;;;;;;17.75;12.55;;;;;;;14.30;89.85;98563.38;4823651;29;20054;-67
2023/06/03 00:15:23;;;;;;;18.30;11.32;;;;;;;14.28;89.49;98581.47;4823275;29;20048;-67
2023/06/03 00:17:48;;;;;;;15.48;10.57;;;;;;;14.25;89.56;98587.13;4811832;29;20052;-68
2023/06/03 00:20:14;;;;;;;14.65;9.48;;;;;;;14.23;89.53;98579.25;4806377;29;20057;-67
2023/06/03 00:22:40;;;;;;;13.35;8.07;;;;;;;14.21;88.94;98564.34;4822254;29;20064;-67
2023/06/03 00:25:12;;;;;;;13.55;8.32;;;;;;;14.17;89.18;98602.19;4807452;29;20049;-67
2023/06/03 00:27:43;;;;;;;14.45;8.75;;;;;;;14.16;88.62;98616.56;4807323;29;20061;-67
2023/06/03 00:30:11;;;;;;;11.43;7.65;;;;;;;14.15;88.90;98614.88;4813889;29;20057;-68
2023/06/03 00:32:38;;;;;;;15.35;7.50;;;;;;;14.12;88.56;98615.19;4818205;29;20049;-69
2023/06/03 00:35:09;;;;;;;10.68;7.78;;;;;;;14.11;88.48;98618.03;4816794;29;20405;-68
2023/06/03 00:38:05;;;;;;;11.40;7.22;;;;;;;14.09;88.33;98594.09;4812509;29;20076;-68
2023/06/03 00:40:57;;;;;;;11.93;7.30;;;;;;;14.10;88.51;98594.94;4823292;29;20052;-66
2023/06/03 00:43:25;;;;;;;15.85;8.63;;;;;;;14.08;87.68;98591.56;4822342;29;20090;-68
2023/06/03 00:45:50;;;;;;;11.18;6.97;;;;;;;14.07;88.03;98589.88;4823592;29;20068;-68
2023/06/03 00:48:18;;;;;;;12.85;7.55;;;;;;;14.05;88.41;98586.50;4821051;29;20871;-68
2023/06/03 00:50:45;;;;;;;11.18;7.10;;;;;;;14.02;88.41;98614.44;4837884;29;20048;-67
2023/06/03 00:53:11;;;;;;;21.38;8.77;;;;;;;13.97;88.28;98615.94;4823488;29;20049;-67
2023/06/03 00:55:40;;;;;;;11.30;7.15;;;;;;;13.94;88.19;98584.09;4819884;29;20073;-67
2023/06/03 00:58:32;;;;;;;15.15;7.15;;;;;;;13.90;87.95;98580.88;4823173;29;20077;-67
2023/06/03 01:00:58;;;;;;;12.85;7.35;;;;;;;13.85;87.77;98585.03;4806843;29;20521;-66
2023/06/03 01:03:50;;;;;;;10.02;7.18;;;;;;;13.85;87.77;98574.31;4823120;29;20045;-68
2023/06/03 01:06:23;;;;;;;11.50;7.57;;;;;;;13.84;87.76;98556.56;4806924;29;20497;-67
2023/06/03 01:09:14;;;;;;;11.05;7.65;;;;;;;13.88;87.51;98569.50;4808244;29;20050;-67
2023/06/03 01:11:48;;;;;;;12.35;7.75;;;;;;;13.80;87.71;98556.84;4830173;29;20042;-66
2023/06/03 01:14:21;;;;;;;11.43;8.30;;;;;;;13.77;87.44;98557.16;4808043;29;20446;-66
2023/06/03 01:16:55;;;;;;;11.50;8.13;;;;;;;13.75;87.13;98551.16;4806791;29;20042;-68
2023/06/03 01:19:47;;;;;;;9.70;7.72;;;;;;;13.72;87.44;98542.56;4837834;29;20050;-68
2023/06/03 01:22:44;;;;;;;11.70;8.05;;;;;;;13.68;87.03;98536.69;4807983;29;20041;-69
2023/06/03 01:25:12;;;;;;;12.15;7.97;;;;;;;13.65;87.39;98525.47;4819438;29;20053;-67
2023/06/03 01:27:43;;;;;;;11.73;8.38;;;;;;;13.62;87.28;98544.50;4826203;29;20072;-68
2023/06/03 01:33:04;;;;;;;10.68;8.25;;;;;;;13.57;87.07;98554.81;4840998;29;20041;-72
2023/06/03 01:35:31;;;;;;;11.48;7.82;;;;;;;13.54;87.73;98556.00;4824928;29;20389;-69
2023/06/03 01:37:57;;;;;;;12.95;8.60;;;;;;;13.50;87.50;98564.50;4807454;29;20413;-70
2023/06/03 01:40:23;;;;;;;10.98;8.90;;;;;;;13.49;87.78;98544.91;4827118;29;20057;-72
2023/06/03 01:42:52;;;;;;;12.15;8.45;;;;;;;13.47;87.93;98548.72;4825190;29;20049;-72
2023/06/03 01:45:18;;;;;;;12.93;8.75;;;;;;;13.38;87.54;98558.53;4824268;29;20140;-79
2023/06/03 01:47:46;;;;;;;12.20;8.70;;;;;;;13.33;87.81;98536.72;4822462;29;20045;-73
2023/06/03 01:50:21;;;;;;;14.80;8.95;;;;;;;13.27;87.71;98537.34;4822110;29;20057;-74
2023/06/03 01:52:47;;;;;;;14.40;10.20;;;;;;;13.17;87.79;98532.06;4806880;29;20064;-76
2023/06/03 01:55:12;;;;;;;13.43;9.40;;;;;;;13.09;87.95;98577.47;4816249;29;20053;-77
2023/06/03 01:57:38;;;;;;;13.93;8.60;;;;;;;13.04;88.32;98543.13;4804168;29;20041;-74
2023/06/03 02:00:06;;;;;;;14.23;8.45;;;;;;;13.00;88.46;98546.25;4811293;29;20050;-73
2023/06/03 02:02:40;;;;;;;13.77;8.70;;;;;;;12.97;88.67;98543.88;4809924;29;20056;-73
2023/06/03 02:05:09;;;;;;;16.42;9.57;;;;;;;12.92;88.77;98548.84;4807789;29;20058;-71
2023/06/03 02:07:35;;;;;;;12.32;9.27;;;;;;;12.88;88.92;98556.31;4808201;29;20049;-70
2023/06/03 02:10:01;;;;;;;10.43;7.85;;;;;;;12.86;89.37;98561.00;4821863;29;20054;-71
2023/06/03 02:12:31;;;;;;;11.15;8.88;;;;;;;12.83;89.25;98582.69;4806094;29;20060;-70
2023/06/03 02:14:56;;;;;;;10.48;7.32;;;;;;;12.82;89.48;98554.25;4821721;29;20808;-69
2023/06/03 02:17:24;;;;;;;10.05;7.55;;;;;;;12.81;89.58;98559.75;4822422;29;20060;-69
2023/06/03 02:19:50;;;;;;;12.13;7.90;;;;;;;12.80;89.68;98563.41;4839713;29;20049;-69
2023/06/03 02:22:17;;;;;;;14.27;7.15;;;;;;;12.78;89.54;98557.38;4839708;29;20053;-69
2023/06/03 02:24:47;;;;;;;9.57;6.85;;;;;;;12.73;89.51;98564.03;4823610;29;20053;-69
2023/06/03 02:27:38;;;;;;;8.25;6.35;;;;;;;12.73;89.45;98564.03;4825401;29;20053;-73
2023/06/03 02:30:34;;;;;;;8.82;6.28;;;;;;;12.71;89.81;98530.41;4825684;29;20057;-74
2023/06/03 02:33:06;;;;;;;8.15;6.00;;;;;;;12.69;89.84;98561.78;4824459;29;20053;-74
2023/06/03 02:35:37;;;;;;;13.95;6.03;;;;;;;12.67;89.65;98553.91;4825509;29;20049;-73
2023/06/03 02:38:07;;;;;;;7.35;4.60;;;;;;;12.59;89.62;98556.50;4825337;29;20053;-74
2023/06/03 02:40:36;;;;;;;7.38;5.05;;;;;;;12.57;89.59;98562.97;4824222;29;20053;-73
2023/06/03 02:43:06;;;;;;;7.15;4.20;;;;;;;12.47;89.44;98597.78;4824500;29;20052;-76
2023/06/03 02:45:31;;;;;;;6.68;4.68;;;;;;;12.43;89.48;98579.50;4824128;29;20057;-76
2023/06/03 02:47:58;;;;;;;6.70;4.20;;;;;;;12.36;89.46;98579.25;4824372;29;20469;-74
2023/06/03 02:50:26;;;;;;;7.68;3.90;;;;;;;12.28;89.13;98580.00;4823678;29;20065;-75
2023/06/03 02:55:42;;;;;;;5.45;3.80;;;;;;;12.15;88.56;98591.97;4824067;29;20057;-75
2023/06/03 02:58:08;;;;;;;6.03;3.58;;;;;;;12.09;88.81;98592.53;4839950;29;20056;-74
2023/06/03 03:00:35;;;;;;;6.63;4.78;;;;;;;12.02;88.48;98628.84;4825009;29;20084;-74
2023/06/03 03:03:01;;;;;;;4.25;3.28;;;;;;;11.99;88.90;98601.44;4810446;29;20060;-75
2023/06/03 03:05:32;;;;;;;6.50;3.70;;;;;;;11.98;88.47;98602.41;4826120;29;20049;-74
2023/06/03 03:08:02;;;;;;;3.97;3.08;;;;;;;11.96;88.58;98599.03;4825814;29;20052;-74
2023/06/03 03:10:29;;;;;;;12.15;3.88;;;;;;;11.94;89.00;98614.41;4825275;29;20067;-70
2023/06/03 03:12:57;;;;;;;5.63;3.63;;;;;;;11.93;88.70;98603.84;4825994;29;20053;-71
2023/06/03 03:18:17;;;;;;;4.72;3.40;;;;;;;11.92;88.27;98629.72;4840415;29;20417;-72
2023/06/03 03:20:44;;;;;;;3.13;2.90;;;;;;;11.93;88.82;98646.59;4824550;29;20046;-70
2023/06/03 03:23:15;;;;;;;4.45;3.47;;;;;;;11.93;88.49;98607.38;4806451;29;20055;-70
2023/06/03 03:25:46;;;;;;;3.50;3.20;;;;;;;11.95;88.10;98608.06;4807490;29;20058;-72
2023/06/03 03:28:14;;;;;;;3.72;2.95;;;;;;;11.92;88.15;98612.84;4808059;29;20045;-73
2023/06/03 03:30:46;;;;;;;4.93;3.50;;;;;;;11.92;88.18;98612.84;4809044;29;20077;-72
2023/06/03 03:33:24;;;;;;;5.28;2.90;;;;;;;11.93;88.19;98614.53;4806769;29;20065;-73
2023/06/03 03:35:52;;;;;;;5.40;3.10;;;;;;;11.92;87.93;98619.03;4807892;29;20050;-73
2023/06/03 03:42:00;;;;;;;3.28;2.70;;;;;;;11.98;88.19;98618.44;4838643;29;20064;-72
2023/06/03 03:44:31;;;;;;;4.95;3.10;;;;;;;11.89;88.15;98610.44;4852282;29;20052;-71
2023/06/03 03:47:02;;;;;;;5.68;3.58;;;;;;;11.87;88.11;98615.94;4861319;29;20029;-71
2023/06/03 03:49:36;;;;;;;5.38;3.38;;;;;;;11.90;87.97;98615.66;4822465;29;20436;-72
2023/06/03 03:52:30;;;;;;;3.92;3.47;;;;;;;11.93;88.18;98609.19;4824324;29;20064;-72
2023/06/03 03:55:00;;;;;;;4.10;3.35;;;;;;;11.96;88.17;98616.94;4827690;29;20049;-71
2023/06/03 03:57:25;;;;;;;3.75;3.28;;;;;;;11.98;88.20;98633.63;4845714;29;20057;-71
2023/06/03 03:59:55;;;;;;;4.97;2.90;;;;;;;12.05;88.01;98633.91;4839714;29;20045;-70
2023/06/03 04:02:46;;;;;;;4.93;3.10;;;;;;;12.06;87.47;98624.91;4825042;29;20429;-71
2023/06/03 04:05:17;;;;;;;3.88;2.83;;;;;;;12.07;87.65;98615.91;4809867;29;20060;-72
2023/06/03 04:07:44;;;;;;;3.53;2.70;;;;;;;12.08;87.72;98606.88;4826625;29;20049;-72
2023/06/03 04:10:13;;;;;;;4.35;2.42;;;;;;;12.09;87.30;98635.28;4825672;29;20061;-72
2023/06/03 04:12:40;;;;;;;3.10;2.13;;;;;;;12.10;86.53;98584.38;4841146;29;20060;-71
2023/06/03 04:15:33;;;;;;;3.63;2.55;;;;;;;12.08;86.59;98623.75;4825426;29;20049;-72
2023/06/03 04:18:00;;;;;;;3.63;2.67;;;;;;;12.08;86.53;98617.56;4825817;29;20056;-72
2023/06/03 04:20:42;;;;;;;3.28;2.47;;;;;;;12.18;86.74;98615.75;4826305;29;20141;-72
2023/06/03 04:26:34;;;;;;;3.28;2.88;;;;;;;12.18;86.22;98602.41;4818915;29;20037;-73
2023/06/03 04:29:00;;;;;;;3.30;2.70;;;;;;;12.17;85.72;98614.91;4826602;29;20053;-72
2023/06/03 04:31:27;;;;;;;3.17;2.58;;;;;;;12.19;85.60;98609.44;4825144;29;20053;-73
2023/06/03 04:33:54;;;;;;;3.60;2.75;;;;;;;12.20;85.38;98611.94;4810292;29;20068;-70
2023/06/03 04:36:23;;;;;;;3.03;2.72;;;;;;;12.21;85.27;98623.44;4840421;29;20049;-70
2023/06/03 04:38:51;;;;;;;3.58;3.10;;;;;;;12.20;85.24;98644.00;4824582;29;20060;-71
2023/06/03 04:41:18;;;;;;;10.18;6.45;;;;;;;12.18;84.62;98613.91;4827012;29;20057;-71
2023/06/03 04:43:52;;;;;;;3.30;3.00;;;;;;;12.18;84.75;98623.78;4813241;29;20068;-70
2023/06/03 04:46:29;;;;;;;3.38;2.75;;;;;;;12.11;84.81;98611.94;4828643;29;20050;-69
2023/06/03 04:49:01;;;;;;;4.53;3.03;;;;;;;12.16;84.74;98636.44;4829102;29;20045;-71
2023/06/03 04:51:35;;;;;;;3.13;2.80;;;;;;;12.13;84.44;98626.00;4844028;29;20049;-71
2023/06/03 04:54:10;;;;;;;4.13;3.67;;;;;;;12.19;84.35;98636.13;4812039;29;20061;-69
2023/06/03 04:56:45;;;;;;;4.30;2.88;;;;;;;12.14;84.15;98620.53;4827129;29;20052;-71
2023/06/03 04:59:11;;;;;;;6.53;3.25;;;;;;;12.15;83.94;98635.56;4843733;29;20057;-70
2023/06/03 05:01:48;;;;;;;4.18;3.10;;;;;;;12.13;83.87;98647.38;4828657;29;20049;-71
2023/06/03 05:04:20;;;;;;;3.85;3.45;;;;;;;12.10;84.08;98664.53;4829815;29;20049;-70
2023/06/03 05:06:48;;;;;;;3.60;2.90;;;;;;;12.09;83.83;98640.63;4831244;29;20054;-71
2023/06/03 05:09:15;;;;;;;4.10;3.15;;;;;;;12.08;83.70;98638.94;4838860;29;20058;-71
2023/06/03 05:11:46;;;;;;;4.15;2.65;;;;;;;12.07;83.19;98653.31;4828964;29;20045;-72
2023/06/03 05:14:14;;;;;;;3.55;2.53;;;;;;;12.09;83.29;98636.13;4827475;29;20494;-72
2023/06/03 05:16:43;;;;;;;4.88;2.90;;;;;;;12.13;83.22;98636.69;4812210;29;20049;-71
2023/06/03 05:19:10;;;;;;;3.80;2.42;;;;;;;12.11;83.29;98628.81;4843549;29;20144;-72
2023/06/03 05:21:37;;;;;;;3.35;3.00;;;;;;;12.10;83.07;98658.34;4843307;29;20056;-73
2023/06/03 05:26:55;;;;;;;3.08;2.78;;;;;;;12.02;82.50;98639.53;4824264;29;20057;-72
2023/06/03 05:29:21;;;;;;;4.13;3.63;;;;;;;11.95;82.95;98632.09;4840054;29;20041;-72
2023/06/03 05:31:49;;;;;;;3.97;3.58;;;;;;;11.90;82.57;98626.34;4798704;29;20056;-71
2023/06/03 05:34:18;;;;;;;4.95;3.47;;;;;;;11.90;82.43;98609.47;4812207;29;20064;-71
2023/06/03 05:36:47;;;;;;;5.03;4.20;;;;;;;11.84;81.97;98637.59;4812347;29;20045;-70
2023/06/03 05:39:20;;;;;;;6.63;4.20;;;;;;;11.82;82.38;98642.25;4841767;29;20080;-71
2023/06/03 05:41:46;;;;;;;5.78;3.58;;;;;;;11.78;82.13;98632.81;4828028;29;20049;-71
2023/06/03 05:44:13;;;;;;;4.55;3.35;;;;;;;11.78;82.17;98637.31;4842331;29;20413;-71
2023/06/03 05:46:40;;;;;;;4.47;3.88;;;;;;;11.75;82.61;98659.78;4827990;29;20056;-72
2023/06/03 05:49:07;;;;;;;3.92;3.55;;;;;;;11.77;82.41;98667.66;4827262;29;20045;-70
2023/06/03 05:52:02;;;;;;;4.55;3.45;;;;;;;11.81;82.50;98626.34;4833592;29;20082;-71
2023/06/03 05:54:31;;;;;;;5.88;3.60;;;;;;;11.84;82.43;98637.59;4827061;29;20509;-72
2023/06/03 05:57:00;;;;;;;6.53;4.03;;;;;;;11.89;82.07;98624.66;4812076;29;20433;-72
2023/06/03 05:59:31;;;;;;;4.75;3.30;;;;;;;11.96;81.95;98619.59;4827565;29;20049;-73
2023/06/03 06:01:58;;;;;;;5.28;3.65;;;;;;;11.97;82.08;98622.09;4827130;29;20057;-71
2023/06/03 06:04:24;;;;;;;6.97;3.58;;;;;;;12.01;81.96;98606.63;4842452;29;20048;-72
2023/06/03 06:06:52;;;;;;;4.45;3.40;;;;;;;12.04;81.40;98605.50;4827735;29;20046;-72
2023/06/03 06:09:19;;;;;;;3.08;2.80;;;;;;;12.04;81.95;98622.38;4811475;29;20057;-72
2023/06/03 06:11:48;;;;;;;5.10;3.88;;;;;;;12.04;81.06;98626.88;4808685;29;20061;-73
2023/06/03 06:14:16;;;;;;;5.07;3.83;;;;;;;12.01;81.28;98622.66;4808956;29;20702;-70
2023/06/03 06:16:48;;;;;;;5.03;3.67;;;;;;;11.96;81.42;98620.41;4808411;29;20052;-71
2023/06/03 06:19:14;;;;;;;4.43;3.80;;;;;;;11.92;81.15;98613.69;4808002;29;20057;-69
2023/06/03 06:21:39;;;;;;;11.00;4.57;;;;;;;11.86;81.30;98630.28;4808437;29;20405;-70
2023/06/03 06:24:29;;;;;;;5.80;3.90;;;;;;;11.82;81.01;98628.88;4809181;29;20496;-72
2023/06/03 06:26:56;;;;;;;7.57;4.25;;;;;;;11.82;80.53;98622.69;4808016;29;20445;-71
2023/06/03 06:29:26;;;;;;;5.13;4.03;;;;;;;11.74;80.53;98631.38;4794929;29;20522;-72
2023/06/03 06:31:54;;;;;;;6.07;4.00;;;;;;;11.67;80.90;98630.25;4819910;29;20046;-71
2023/06/03 06:34:19;;;;;;;8.35;4.22;;;;;;;11.59;80.58;98628.31;4817714;29;20425;-72
2023/06/03 06:36:52;;;;;;;4.70;3.88;;;;;;;11.51;80.76;98630.00;4832492;29;20050;-70
2023/06/03 06:39:51;;;;;;;5.38;4.28;;;;;;;11.46;80.53;98635.75;4827646;29;20065;-71
2023/06/03 06:45:43;;;;;;;5.05;3.83;;;;;;;11.24;80.58;98633.34;4802967;29;20060;-76
2023/06/03 06:48:14;;;;;;;8.80;4.45;;;;;;;11.16;81.26;98603.84;4825698;29;20053;-74
2023/06/03 06:51:00;;;;;;;5.82;3.97;;;;;;;11.09;81.47;98640.03;4825860;29;20049;-75
2023/06/03 06:53:52;;;;;;;8.82;3.97;;;;;;;10.92;82.25;98652.22;4826092;29;20429;-75
2023/06/03 06:56:22;;;;;;;6.97;4.32;;;;;;;10.79;82.66;98667.59;4825265;29;20049;-76
2023/06/03 06:58:56;;;;;;;8.05;4.57;;;;;;;10.68;82.43;98684.53;4823179;29;20049;-76
2023/06/03 07:01:22;;;;;;;5.07;3.60;;;;;;;10.58;82.84;98693.47;4823010;29;20049;-75
2023/06/03 07:03:51;;;;;;;8.63;3.75;;;;;;;10.48;83.65;98678.28;4822788;29;20061;-74
2023/06/03 07:06:17;;;;;;;5.95;3.65;;;;;;;10.42;83.88;98677.94;4823349;29;20439;-74
2023/06/03 07:08:48;;;;;;;5.72;2.85;;;;;;;10.40;84.64;98691.41;4823848;29;20520;-76
2023/06/03 07:11:22;;;;;;;6.40;2.95;;;;;;;10.40;85.25;98686.06;4808917;29;20050;-74
2023/06/03 07:14:14;;;;;;;4.03;2.60;;;;;;;10.41;85.02;98697.56;4817375;29;20053;-75
2023/06/03 07:17:07;;;;;;;31.35;4.00;;;;;;;10.41;85.30;98724.22;4843296;29;20413;-76
2023/06/03 07:19:37;;;;;;;7.70;3.60;;;;;;;10.45;85.83;98689.19;4826169;29;20042;-76
2023/06/03 07:22:06;;;;;;;6.05;3.20;;;;;;;10.45;85.65;98675.88;4810657;29;20513;-76
2023/06/03 07:24:34;;;;;;;6.10;4.53;;;;;;;10.43;86.52;98679.63;4825841;29;20390;-77
2023/06/03 07:27:00;;;;;;;9.02;6.88;;;;;;;10.44;85.99;98660.84;4825605;29;20132;-76
2023/06/03 07:29:38;;;;;;;8.13;6.93;;;;;;;10.46;86.75;98653.59;4841950;29;20049;-78
2023/06/03 07:32:09;;;;;;;7.18;5.28;;;;;;;10.44;86.75;98666.19;4842699;29;20045;-76
2023/06/03 07:34:36;;;;;;;4.75;3.65;;;;;;;10.40;86.40;98667.41;4842032;29;20390;-75
2023/06/03 07:37:28;;;;;;;6.38;3.25;;;;;;;10.43;86.86;98667.16;4827112;29;20048;-76
2023/06/03 07:39:53;;;;;;;4.72;3.65;;;;;;;10.22;86.39;98692.13;4831575;29;20064;-75
2023/06/03 07:42:25;;;;;;;5.25;3.42;;;;;;;10.07;87.01;98699.56;4846469;29;20045;-75
2023/06/03 07:45:03;;;;;;;6.43;4.05;;;;;;;9.96;86.85;98686.31;4813454;29;20060;-76
2023/06/03 07:47:56;;;;;;;4.15;3.13;;;;;;;9.96;87.12;98679.16;4811882;29;20061;-76
2023/06/03 07:50:26;;;;;;;5.00;3.17;;;;;;;9.80;87.13;98692.94;4808408;29;20061;-75
2023/06/03 07:53:02;;;;;;;3.90;2.85;;;;;;;9.86;87.04;98685.41;4800603;29;20095;-75
2023/06/03 07:55:53;;;;;;;9.68;3.28;;;;;;;9.91;87.94;98688.53;4824004;29;20049;-75
2023/06/03 07:58:18;;;;;;;2.58;2.00;;;;;;;9.99;87.52;98678.06;4832552;29;20053;-75
2023/06/03 08:00:45;;;;;;;2.92;1.90;;;;;;;10.05;87.77;98681.06;4832807;29;20435;-75
2023/06/03 08:03:18;;;;;;;3.15;2.08;;;;;;;10.12;87.27;98686.72;4824584;29;20592;-76
2023/06/03 08:05:47;;;;;;;2.03;1.83;;;;;;;10.03;87.00;98699.00;4823779;29;20045;-74
2023/06/03 08:08:38;;;;;;;2.88;2.47;;;;;;;10.01;86.93;98711.59;4822477;29;20053;-77
2023/06/03 08:11:04;;;;;;;4.78;2.30;;;;;;;9.81;87.04;98721.25;4823998;29;20045;-77
2023/06/03 08:13:32;;;;;;;2.55;2.03;;;;;;;9.75;87.39;98699.59;4838950;29;20049;-76
2023/06/03 08:16:01;;;;;;;3.35;2.10;;;;;;;9.66;87.28;98765.09;4825955;29;20057;-77
2023/06/03 08:18:44;;;;;;;2.25;1.88;;;;;;;9.65;87.64;98776.69;4828206;29;20136;-74
2023/06/03 08:21:14;;;;;;;5.75;1.92;;;;;;;9.55;87.98;98789.06;4830236;29;20282;-76
2023/06/03 08:23:40;;;;;;;5.70;3.00;;;;;;;9.50;88.01;98801.88;4828566;29;20046;-76
2023/06/03 08:26:08;;;;;;;6.20;3.00;;;;;;;9.44;88.24;98823.66;4817762;29;20056;-75
2023/06/03 08:28:38;;;;;;;4.07;2.08;;;;;;;9.40;88.35;98823.06;4812019;29;20501;-75
2023/06/03 08:31:10;;;;;;;2.45;2.20;;;;;;;9.29;87.33;98819.56;4814947;29;20037;-77
2023/06/03 08:33:36;;;;;;;4.13;2.80;;;;;;;9.23;88.13;98820.06;4806754;29;20049;-77
2023/06/03 08:36:01;;;;;;;5.20;2.30;;;;;;;9.22;88.03;98807.72;4821677;29;20058;-77
2023/06/03 08:38:27;;;;;;;6.10;2.72;;;;;;;9.29;88.54;98787.63;4806285;29;20046;-74
2023/06/03 08:40:54;;;;;;;3.80;2.47;;;;;;;9.29;88.54;98824.88;4822003;29;20042;-76
2023/06/03 08:46:35;;;;;;;2.20;1.80;;;;;;;9.36;88.45;98804.81;4832081;29;20053;-74
2023/06/03 08:49:37;;;;;;;2.97;1.70;;;;;;;9.37;88.94;98823.28;4812348;29;20052;-75
2023/06/03 08:52:03;;;;;;;4.85;1.95;;;;;;;9.32;89.20;98814.00;4832697;29;20049;-74
2023/06/03 08:54:37;;;;;;;2.03;1.63;;;;;;;9.33;89.04;98816.53;4815872;29;20060;-75
2023/06/03 09:00:28;;;;;;;2.05;1.88;;;;;;;9.32;88.74;98843.25;4812565;29;20072;-75
2023/06/03 09:03:03;;;;;;;2.00;1.90;;;;;;;9.29;89.68;98851.47;4797769;29;20053;-77
2023/06/03 09:05:29;;;;;;;3.88;2.42;;;;;;;9.23;89.71;98873.25;4825418;29;20049;-76
2023/06/03 09:07:56;;;;;;;1.73;1.63;;;;;;;9.23;89.37;98862.59;4823264;29;20490;-75
2023/06/03 09:10:22;;;;;;;1.85;1.63;;;;;;;9.24;89.34;98880.25;4808614;29;20057;-77
2023/06/03 09:13:13;;;;;;;1.00;1.00;;;;;;;9.38;89.44;98861.38;4821297;29;20056;-76
2023/06/03 09:15:43;;;;;;;;;;;;;;;9.54;89.57;98850.38;4812664;29;20147;-76
2023/06/03 09:18:13;;;;;;;2.53;1.10;;;;;;;9.44;89.22;98850.28;4820804;29;19920;-76
2023/06/03 09:21:03;;;;;;;4.75;2.08;;;;;;;9.49;89.64;98848.06;4810858;29;20856;-76
2023/06/03 09:23:32;;;;;;;1.65;1.50;;;;;;;9.52;89.41;98836.34;4809628;29;20058;-76
2023/06/03 09:25:59;;;;;;;2.22;1.33;;;;;;;9.55;89.58;98826.31;4811889;29;20049;-75
2023/06/03 09:28:28;;;;;;;1.92;1.73;;;;;;;9.57;88.54;98819.06;4813448;29;20050;-75
2023/06/03 09:31:20;;;;;;;3.22;1.73;;;;;;;9.63;88.74;98839.84;4813564;29;20057;-76
2023/06/03 09:36:48;;;;;;;3.83;1.90;;;;;;;9.87;88.23;98825.53;4812353;29;20065;-74
2023/06/03 09:39:32;;;;;;;2.60;1.83;;;;;;;9.89;88.77;98840.41;4823273;29;20057;-71
2023/06/03 09:41:59;;;;;;;3.13;2.20;;;;;;;9.73;88.62;98867.41;4809353;29;20062;-72
2023/06/03 09:44:40;;;;;;;3.13;2.00;;;;;;;9.71;88.30;98873.81;4821659;29;20041;-72
2023/06/03 09:47:11;;;;;;;2.20;1.60;;;;;;;9.59;88.77;98882.81;4799327;29;20064;-72
2023/06/03 09:49:38;;;;;;;2.25;1.90;;;;;;;9.57;88.38;98856.31;4815095;29;20053;-71
2023/06/03 09:52:11;;;;;;;4.85;2.15;;;;;;;9.55;88.65;98922.09;4808303;29;20049;-74
2023/06/03 09:55:07;;;;;;;4.63;2.88;;;;;;;9.54;88.38;98856.56;4807752;29;20057;-73
2023/06/03 09:57:36;;;;;;;5.05;3.13;;;;;;;9.56;88.55;98859.09;4811451;29;20057;-73
2023/06/03 10:00:11;;;;;;;5.47;2.78;;;;;;;9.58;88.50;98868.66;4825893;29;20046;-72
2023/06/03 10:03:07;;;;;;;2.58;2.30;;;;;;;9.59;88.18;98865.03;4811143;29;20064;-72
2023/06/03 10:06:22;;;;;;;2.70;1.95;;;;;;;9.63;88.95;98876.25;4824031;29;20052;-71
2023/06/03 10:08:56;;;;;;;2.90;2.15;;;;;;;9.60;87.93;98887.13;4794326;29;20053;-70
2023/06/03 10:11:23;;;;;;;4.13;2.58;;;;;;;9.54;88.83;98888.47;4823932;29;20038;-72
2023/06/03 10:14:04;;;;;;;3.42;2.58;;;;;;;9.58;87.85;98895.25;4821539;29;20041;-72
2023/06/03 10:16:30;;;;;;;4.63;2.10;;;;;;;9.52;88.63;98890.41;4807756;29;20046;-71
2023/06/03 10:18:56;;;;;;;2.58;2.10;;;;;;;9.52;88.84;98906.38;4793286;29;20053;-71
2023/06/03 10:21:29;;;;;;;3.53;2.25;;;;;;;9.60;87.86;98925.22;4821694;29;20049;-72
2023/06/03 10:24:26;;;;;;;3.60;2.53;;;;;;;9.63;88.44;98919.69;4807678;29;20042;-72
2023/06/03 10:26:54;;;;;;;4.68;2.85;;;;;;;9.61;87.97;98921.59;4821735;29;20935;-71
2023/06/03 10:29:53;;;;;;;2.75;2.13;;;;;;;9.65;88.38;98927.53;4809429;29;20540;-73
2023/06/03 10:35:14;;;;;;;7.50;2.20;;;;;;;9.45;88.48;98916.66;4822880;29;20053;-72
2023/06/03 10:38:05;;;;;;;2.95;2.17;;;;;;;9.50;88.38;98934.06;4806165;29;20052;-72
2023/06/03 10:41:00;;;;;;;5.85;2.80;;;;;;;9.39;88.32;98949.06;4808032;29;20144;-71
2023/06/03 10:43:26;;;;;;;2.25;2.05;;;;;;;9.38;89.00;98952.69;4806737;29;20053;-74
2023/06/03 10:48:46;;;;;;;3.72;2.28;;;;;;;9.34;88.46;98987.63;4808575;29;20054;-71
2023/06/03 10:51:23;;;;;;;4.63;2.65;;;;;;;9.40;88.18;98971.19;4822621;29;20046;-70
2023/06/03 10:54:06;;;;;;;3.58;2.35;;;;;;;9.39;88.13;98990.75;4822459;29;20053;-72
2023/06/03 10:56:32;;;;;;;3.05;2.03;;;;;;;9.38;88.40;99000.56;4806867;29;20057;-71
2023/06/03 10:59:09;;;;;;;7.55;3.05;;;;;;;9.35;87.60;98990.19;4806644;29;20050;-72
2023/06/03 11:01:58;;;;;;;3.50;2.42;;;;;;;9.36;87.94;98996.34;4823517;29;20050;-72
2023/06/03 11:04:32;;;;;;;3.33;2.70;;;;;;;9.28;87.96;98994.25;4824452;29;20056;-73
2023/06/03 11:06:58;;;;;;;3.60;2.80;;;;;;;9.25;87.60;98993.66;4825804;29;20053;-72
2023/06/03 11:09:48;;;;;;;3.38;2.75;;;;;;;9.24;87.08;99006.09;4810334;29;20053;-72
2023/06/03 11:12:13;;;;;;;4.28;2.40;;;;;;;9.24;86.77;98997.28;4807996;29;20066;-73
2023/06/03 11:20:37;;;;;;;3.33;1.85;;;;;;;9.14;86.38;99044.16;4823058;29;20505;-77
2023/06/03 11:23:02;;;;;;;1.73;1.63;;;;;;;9.08;86.98;99051.63;4808809;29;20052;-76
2023/06/03 11:31:43;;;;;;;3.33;2.40;;;;;;;9.04;86.86;99145.84;4826900;29;20045;-78
2023/06/03 11:34:25;;;;;;;2.78;2.25;;;;;;;9.07;86.52;99055.22;4818492;29;20054;-71
2023/06/03 11:36:55;;;;;;;8.40;2.42;;;;;;;9.02;86.59;99056.56;4806503;29;20064;-71
2023/06/03 11:39:23;;;;;;;4.03;2.35;;;;;;;9.05;86.55;99073.09;4806610;29;20068;-71
2023/06/03 11:42:04;;;;;;;2.85;2.40;;;;;;;9.14;86.04;99071.59;4822260;29;20390;-72
2023/06/03 11:44:30;;;;;;;3.45;2.50;;;;;;;9.14;86.77;99065.44;4823881;29;20049;-73
2023/06/03 11:46:59;;;;;;;3.67;3.05;;;;;;;9.18;86.43;99078.38;4823164;29;20049;-73
2023/06/03 11:49:27;;;;;;;5.78;4.00;;;;;;;9.24;86.67;99053.13;4808625;29;20053;-73
2023/06/03 11:51:58;;;;;;;5.13;2.65;;;;;;;9.34;86.57;99056.78;4806900;29;20501;-72
2023/06/03 11:54:48;;;;;;;4.22;2.92;;;;;;;9.38;86.46;99074.19;4811852;29;20054;-71
2023/06/03 11:57:14;;;;;;;5.38;3.58;;;;;;;9.37;86.11;99078.66;4834431;29;20049;-72
2023/06/03 11:59:44;;;;;;;5.72;3.35;;;;;;;9.38;86.38;99072.38;4818886;29;20045;-72
2023/06/03 12:05:05;;;;;;;5.45;2.38;;;;;;;9.29;85.82;99082.88;4809267;29;20407;-72
2023/06/03 12:07:48;;;;;;;;;;;;;;;;;;;;;
2023/06/03 12:15:05;;;;;;;3.25;1.77;;;;;;;9.64;85.73;99080.22;4935937;24;20064;-68
2023/06/03 12:17:31;;;;;;;5.57;2.42;;;;;;;9.74;85.58;99082.03;4822624;29;20056;-76
2023/06/03 12:20:00;;;;;;;3.28;2.22;;;;;;;9.77;84.30;99112.91;4792562;29;20045;-73
2023/06/03 12:22:30;;;;;;;3.70;2.10;;;;;;;9.79;84.04;99106.50;4825852;29;20053;-72
2023/06/03 12:24:55;;;;;;;2.88;2.17;;;;;;;9.78;84.00;99094.16;4808025;29;20521;-72
2023/06/03 12:27:23;;;;;;;2.38;2.10;;;;;;;9.75;83.71;99115.69;4792495;29;20061;-74
2023/06/03 12:29:59;;;;;;;3.33;2.88;;;;;;;9.80;83.41;99096.72;4824547;29;20045;-73
2023/06/03 12:32:31;;;;;;;4.75;2.33;;;;;;;9.77;82.63;99108.44;4808086;29;20053;-74
2023/06/03 12:34:58;;;;;;;4.18;2.92;;;;;;;9.78;82.68;99088.84;4809762;29;20389;-69
2023/06/03 12:37:29;;;;;;;3.70;2.83;;;;;;;9.88;82.88;99096.09;4819030;29;20540;-70
2023/06/03 12:40:24;;;;;;;5.13;2.92;;;;;;;9.93;82.50;99096.63;4819731;29;20041;-68
2023/06/03 12:42:50;;;;;;;6.25;3.22;;;;;;;10.01;82.50;99097.72;4822326;29;20420;-70
2023/06/03 12:45:23;;;;;;;5.03;2.30;;;;;;;10.12;82.62;99095.06;4807954;29;20050;-67
2023/06/03 12:47:53;;;;;;;3.47;2.40;;;;;;;10.16;82.78;99103.63;4823615;29;20056;-69
2023/06/03 12:50:20;;;;;;;4.50;2.70;;;;;;;10.16;82.23;99115.13;4823432;29;20499;-67
2023/06/03 12:52:48;;;;;;;3.90;2.42;;;;;;;10.18;80.60;99105.25;4823402;29;20052;-70
2023/06/03 12:55:17;;;;;;;5.22;2.72;;;;;;;10.24;80.73;99111.06;4806899;29;20523;-68
2023/06/03 12:57:45;;;;;;;3.38;2.75;;;;;;;10.27;81.16;99121.50;4822844;29;20412;-73